sensor_id;sensor_type;location;lat;lon;timestamp;pressure;altitude;pressure_sealevel;temperature;humidity
17593;BME280;8915;51.760;14.300;2024-03-17T00:02:04;101598.13;;;2.81;100.00
17593;BME280;8915;51.760;14.300;2024-03-17T00:04:31;101597.56;;;2.79;100.00
17593;BME280;8915;51.760;14.300;2024-03-17T00:06:58;101600.13;;;2.74;100.00
17593;BME280;8915;51.760;14.300;2024-03-17T00:09:23;101599.06;;;2.70;100.00
17593;BME280;8915;51.760;14.300;2024-03-17T00:11:53;101605.00;;;2.65;100.00
17593;BME280;8915;51.760;14.300;2024-03-17T00:14:19;101600.31;;;2.62;100.00
17593;BME280;8915;51.760;14.300;2024-03-17T00:16:47;101597.66;;;2.57;100.00
17593;BME280;8915;51.760;14.300;2024-03-17T00:19:13;101592.16;;;2.54;100.00
17593;BME280;8915;51.760;14.300;2024-03-17T00:21:41;101597.31;;;2.49;100.00
17593;BME280;8915;51.760;14.300;2024-03-17T00:24:06;101604.06;;;2.45;100.00
17593;BME280;8915;51.760;14.300;2024-03-17T00:26:34;101604.28;;;2.43;100.00
17593;BME280;8915;51.760;14.300;2024-03-17T00:28:59;101605.56;;;2.41;100.00
17593;BME280;8915;51.760;14.300;2024-03-17T00:31:25;101610.50;;;2.37;100.00
17593;BME280;8915;51.760;14.300;2024-03-17T00:33:52;101609.97;;;2.35;100.00
17593;BME280;8915;51.760;14.300;2024-03-17T00:36:17;101604.19;;;2.33;100.00
17593;BME280;8915;51.760;14.300;2024-03-17T00:38:45;101602.63;;;2.32;100.00
17593;BME280;8915;51.760;14.300;2024-03-17T00:41:11;101609.91;;;2.30;100.00
17593;BME280;8915;51.760;14.300;2024-03-17T00:43:37;101610.97;;;2.34;100.00
17593;BME280;8915;51.760;14.300;2024-03-17T00:46:03;101611.53;;;2.36;100.00
17593;BME280;8915;51.760;14.300;2024-03-17T00:48:29;101600.59;;;2.39;100.00
17593;BME280;8915;51.760;14.300;2024-03-17T00:50:55;101608.47;;;2.44;100.00
17593;BME280;8915;51.760;14.300;2024-03-17T00:53:22;101604.34;;;2.48;100.00
17593;BME280;8915;51.760;14.300;2024-03-17T00:55:52;101608.81;;;2.53;100.00
17593;BME280;8915;51.760;14.300;2024-03-17T00:58:19;101605.97;;;2.54;100.00
17593;BME280;8915;51.760;14.300;2024-03-17T01:00:45;101606.53;;;2.56;100.00
17593;BME280;8915;51.760;14.300;2024-03-17T01:03:13;101606.53;;;2.56;100.00
17593;BME280;8915;51.760;14.300;2024-03-17T01:05:38;101612.25;;;2.58;100.00
17593;BME280;8915;51.760;14.300;2024-03-17T01:08:07;101613.34;;;2.62;100.00
17593;BME280;8915;51.760;14.300;2024-03-17T01:10:32;101616.00;;;2.67;100.00
17593;BME280;8915;51.760;14.300;2024-03-17T01:13:00;101609.47;;;2.65;100.00
17593;BME280;8915;51.760;14.300;2024-03-17T01:15:26;101602.44;;;2.70;100.00
17593;BME280;8915;51.760;14.300;2024-03-17T01:17:52;101611.31;;;2.69;100.00
17593;BME280;8915;51.760;14.300;2024-03-17T01:20:17;101604.00;;;2.71;100.00
17593;BME280;8915;51.760;14.300;2024-03-17T01:22:44;101603.00;;;2.72;100.00
17593;BME280;8915;51.760;14.300;2024-03-17T01:25:09;101612.16;;;2.75;100.00
17593;BME280;8915;51.760;14.300;2024-03-17T01:27:36;101607.72;;;2.75;100.00
17593;BME280;8915;51.760;14.300;2024-03-17T01:30:03;101613.97;;;2.74;100.00
17593;BME280;8915;51.760;14.300;2024-03-17T01:32:33;101604.31;;;2.75;100.00
17593;BME280;8915;51.760;14.300;2024-03-17T01:34:59;101610.56;;;2.74;100.00
17593;BME280;8915;51.760;14.300;2024-03-17T01:37:26;101603.78;;;2.73;100.00
17593;BME280;8915;51.760;14.300;2024-03-17T01:39:52;101600.63;;;2.71;100.00
17593;BME280;8915;51.760;14.300;2024-03-17T01:42:18;101609.75;;;2.68;100.00
17593;BME280;8915;51.760;14.300;2024-03-17T01:44:43;101611.81;;;2.66;100.00
17593;BME280;8915;51.760;14.300;2024-03-17T01:47:11;101608.66;;;2.64;100.00
17593;BME280;8915;51.760;14.300;2024-03-17T01:49:36;101611.78;;;2.61;100.00
17593;BME280;8915;51.760;14.300;2024-03-17T01:52:03;101615.91;;;2.57;100.00
17593;BME280;8915;51.760;14.300;2024-03-17T01:54:30;101619.78;;;2.55;100.00
17593;BME280;8915;51.760;14.300;2024-03-17T01:56:57;101621.06;;;2.52;100.00
17593;BME280;8915;51.760;14.300;2024-03-17T01:59:23;101621.78;;;2.48;100.00
17593;BME280;8915;51.760;14.300;2024-03-17T02:01:49;101624.13;;;2.44;100.00
17593;BME280;8915;51.760;14.300;2024-03-17T02:04:17;101624.06;;;2.39;100.00
17593;BME280;8915;51.760;14.300;2024-03-17T02:06:43;101629.22;;;2.34;100.00
17593;BME280;8915;51.760;14.300;2024-03-17T02:09:10;101626.81;;;2.28;100.00
17593;BME280;8915;51.760;14.300;2024-03-17T02:11:35;101624.16;;;2.23;100.00
17593;BME280;8915;51.760;14.300;2024-03-17T02:14:02;101628.75;;;2.16;100.00
17593;BME280;8915;51.760;14.300;2024-03-17T02:16:27;101626.09;;;2.11;100.00
17593;BME280;8915;51.760;14.300;2024-03-17T02:22:43;101626.97;;;1.95;100.00
17593;BME280;8915;51.760;14.300;2024-03-17T02:25:10;101625.88;;;1.91;100.00
17593;BME280;8915;51.760;14.300;2024-03-17T02:27:35;101624.81;;;1.87;100.00
17593;BME280;8915;51.760;14.300;2024-03-17T02:30:02;101629.69;;;1.83;100.00
17593;BME280;8915;51.760;14.300;2024-03-17T02:32:28;101630.19;;;1.80;100.00
17593;BME280;8915;51.760;14.300;2024-03-17T02:34:54;101632.72;;;1.75;100.00
17593;BME280;8915;51.760;14.300;2024-03-17T02:37:20;101630.06;;;1.70;100.00
17593;BME280;8915;51.760;14.300;2024-03-17T02:39:48;101633.13;;;1.67;100.00
17593;BME280;8915;51.760;14.300;2024-03-17T02:42:13;101633.63;;;1.64;100.00
17593;BME280;8915;51.760;14.300;2024-03-17T02:44:40;101623.91;;;1.60;100.00
17593;BME280;8915;51.760;14.300;2024-03-17T02:47:10;101619.75;;;1.59;100.00
17593;BME280;8915;51.760;14.300;2024-03-17T02:49:40;101629.06;;;1.55;100.00
17593;BME280;8915;51.760;14.300;2024-03-17T02:52:10;101627.47;;;1.54;100.00
17593;BME280;8915;51.760;14.300;2024-03-17T02:54:37;101626.41;;;1.50;100.00
17593;BME280;8915;51.760;14.300;2024-03-17T02:57:06;101624.28;;;1.47;100.00
17593;BME280;8915;51.760;14.300;2024-03-17T02:59:32;101625.00;;;1.42;100.00
17593;BME280;8915;51.760;14.300;2024-03-17T03:01:59;101617.97;;;1.43;100.00
17593;BME280;8915;51.760;14.300;2024-03-17T03:04:28;101626.28;;;1.40;100.00
17593;BME280;8915;51.760;14.300;2024-03-17T03:06:55;101623.09;;;1.38;100.00
17593;BME280;8915;51.760;14.300;2024-03-17T03:09:21;101619.41;;;1.34;100.00
17593;BME280;8915;51.760;14.300;2024-03-17T03:11:56;101621.47;;;1.32;100.00
17593;BME280;8915;51.760;14.300;2024-03-17T03:14:25;101628.72;;;1.30;100.00
17593;BME280;8915;51.760;14.300;2024-03-17T03:16:52;101637.53;;;1.29;100.00
17593;BME280;8915;51.760;14.300;2024-03-17T03:19:21;101627.94;;;1.29;100.00
17593;BME280;8915;51.760;14.300;2024-03-17T03:21:48;101628.31;;;1.21;100.00
17593;BME280;8915;51.760;14.300;2024-03-17T03:24:14;101630.59;;;1.18;100.00
17593;BME280;8915;51.760;14.300;2024-03-17T03:26:41;101628.50;;;1.15;100.00
17593;BME280;8915;51.760;14.300;2024-03-17T03:29:07;101634.72;;;1.14;100.00
17593;BME280;8915;51.760;14.300;2024-03-17T03:31:39;101633.84;;;1.08;100.00
17593;BME280;8915;51.760;14.300;2024-03-17T03:34:06;101633.53;;;1.05;100.00
17593;BME280;8915;51.760;14.300;2024-03-17T03:36:34;101619.97;;;1.03;100.00
17593;BME280;8915;51.760;14.300;2024-03-17T03:39:01;101625.09;;;0.98;100.00
17593;BME280;8915;51.760;14.300;2024-03-17T03:41:29;101628.97;;;0.95;100.00
17593;BME280;8915;51.760;14.300;2024-03-17T03:43:56;101632.59;;;0.94;100.00
17593;BME280;8915;51.760;14.300;2024-03-17T03:46:22;101626.28;;;0.90;100.00
17593;BME280;8915;51.760;14.300;2024-03-17T03:48:50;101622.91;;;0.90;100.00
17593;BME280;8915;51.760;14.300;2024-03-17T03:51:16;101622.38;;;0.88;100.00
17593;BME280;8915;51.760;14.300;2024-03-17T03:53:42;101621.56;;;0.87;100.00
17593;BME280;8915;51.760;14.300;2024-03-17T03:56:12;101632.75;;;0.88;100.00
17593;BME280;8915;51.760;14.300;2024-03-17T03:58:40;101632.19;;;0.86;100.00
17593;BME280;8915;51.760;14.300;2024-03-17T04:01:08;101639.91;;;0.81;100.00
17593;BME280;8915;51.760;14.300;2024-03-17T04:03:40;101639.13;;;0.80;100.00
17593;BME280;8915;51.760;14.300;2024-03-17T04:06:10;101634.94;;;0.79;100.00
17593;BME280;8915;51.760;14.300;2024-03-17T04:08:37;101638.03;;;0.76;100.00
17593;BME280;8915;51.760;14.300;2024-03-17T04:11:05;101643.13;;;0.71;100.00
17593;BME280;8915;51.760;14.300;2024-03-17T04:13:32;101642.09;;;0.72;100.00
17593;BME280;8915;51.760;14.300;2024-03-17T04:15:59;101643.13;;;0.71;100.00
17593;BME280;8915;51.760;14.300;2024-03-17T04:18:26;101636.38;;;0.70;100.00
17593;BME280;8915;51.760;14.300;2024-03-17T04:20:56;101641.22;;;0.67;100.00
17593;BME280;8915;51.760;14.300;2024-03-17T04:23:24;101637.63;;;0.68;100.00
17593;BME280;8915;51.760;14.300;2024-03-17T04:25:51;101641.72;;;0.64;100.00
17593;BME280;8915;51.760;14.300;2024-03-17T04:28:17;101639.66;;;0.66;100.00
17593;BME280;8915;51.760;14.300;2024-03-17T04:30:43;101639.88;;;0.64;100.00
17593;BME280;8915;51.760;14.300;2024-03-17T04:33:10;101645.06;;;0.64;100.00
17593;BME280;8915;51.760;14.300;2024-03-17T04:35:37;101652.34;;;0.62;100.00
17593;BME280;8915;51.760;14.300;2024-03-17T04:38:03;101643.72;;;0.62;100.00
17593;BME280;8915;51.760;14.300;2024-03-17T04:40:32;101644.75;;;0.61;100.00
17593;BME280;8915;51.760;14.300;2024-03-17T04:42:58;101644.22;;;0.59;100.00
17593;BME280;8915;51.760;14.300;2024-03-17T04:45:24;101652.47;;;0.56;100.00
17593;BME280;8915;51.760;14.300;2024-03-17T04:47:51;101653.19;;;0.51;100.00
17593;BME280;8915;51.760;14.300;2024-03-17T04:50:17;101652.38;;;0.51;100.00
17593;BME280;8915;51.760;14.300;2024-03-17T04:52:44;101664.38;;;0.52;100.00
17593;BME280;8915;51.760;14.300;2024-03-17T04:55:10;101661.19;;;0.50;100.00
17593;BME280;8915;51.760;14.300;2024-03-17T04:57:38;101664.81;;;0.49;100.00
17593;BME280;8915;51.760;14.300;2024-03-17T05:00:05;101674.66;;;0.47;100.00
17593;BME280;8915;51.760;14.300;2024-03-17T05:02:32;101665.28;;;0.46;100.00
17593;BME280;8915;51.760;14.300;2024-03-17T05:04:58;101674.09;;;0.45;100.00
17593;BME280;8915;51.760;14.300;2024-03-17T05:07:25;101676.69;;;0.45;100.00
17593;BME280;8915;51.760;14.300;2024-03-17T05:09:51;101669.47;;;0.47;100.00
17593;BME280;8915;51.760;14.300;2024-03-17T05:12:18;101671.50;;;0.45;100.00
17593;BME280;8915;51.760;14.300;2024-03-17T05:14:46;101670.03;;;0.49;100.00
17593;BME280;8915;51.760;14.300;2024-03-17T05:17:12;101675.22;;;0.49;100.00
17593;BME280;8915;51.760;14.300;2024-03-17T05:19:38;101675.00;;;0.50;100.00
17593;BME280;8915;51.760;14.300;2024-03-17T05:22:05;101677.38;;;0.52;100.00
17593;BME280;8915;51.760;14.300;2024-03-17T05:24:30;101677.09;;;0.53;100.00
17593;BME280;8915;51.760;14.300;2024-03-17T05:26:56;101677.47;;;0.57;100.00
17593;BME280;8915;51.760;14.300;2024-03-17T05:29:23;101688.63;;;0.57;100.00
17593;BME280;8915;51.760;14.300;2024-03-17T05:31:51;101691.22;;;0.57;100.00
17593;BME280;8915;51.760;14.300;2024-03-17T05:34:17;101690.19;;;0.58;100.00
17593;BME280;8915;51.760;14.300;2024-03-17T05:36:44;101694.94;;;0.61;100.00
17593;BME280;8915;51.760;14.300;2024-03-17T05:39:12;101691.31;;;0.62;100.00
17593;BME280;8915;51.760;14.300;2024-03-17T05:41:38;101693.69;;;0.64;100.00
17593;BME280;8915;51.760;14.300;2024-03-17T05:44:04;101692.44;;;0.66;100.00
17593;BME280;8915;51.760;14.300;2024-03-17T05:46:31;101686.75;;;0.69;100.00
17593;BME280;8915;51.760;14.300;2024-03-17T05:48:58;101694.31;;;0.71;100.00
17593;BME280;8915;51.760;14.300;2024-03-17T05:51:25;101694.91;;;0.73;100.00
17593;BME280;8915;51.760;14.300;2024-03-17T05:53:53;101693.38;;;0.77;100.00
17593;BME280;8915;51.760;14.300;2024-03-17T05:56:21;101694.28;;;0.82;100.00
17593;BME280;8915;51.760;14.300;2024-03-17T05:58:48;101696.66;;;0.84;100.00
17593;BME280;8915;51.760;14.300;2024-03-17T06:01:14;101699.56;;;0.87;100.00
17593;BME280;8915;51.760;14.300;2024-03-17T06:03:40;101697.81;;;0.93;100.00
17593;BME280;8915;51.760;14.300;2024-03-17T06:06:09;101705.97;;;0.96;100.00
17593;BME280;8915;51.760;14.300;2024-03-17T06:08:36;101707.31;;;0.99;100.00
17593;BME280;8915;51.760;14.300;2024-03-17T06:11:03;101710.22;;;1.02;100.00
17593;BME280;8915;51.760;14.300;2024-03-17T06:13:29;101716.28;;;1.08;100.00
17593;BME280;8915;51.760;14.300;2024-03-17T06:15:56;101716.38;;;1.13;100.00
17593;BME280;8915;51.760;14.300;2024-03-17T06:18:26;101714.66;;;1.18;100.00
17593;BME280;8915;51.760;14.300;2024-03-17T06:20:52;101718.09;;;1.24;100.00
17593;BME280;8915;51.760;14.300;2024-03-17T06:23:24;101729.63;;;1.28;100.00
17593;BME280;8915;51.760;14.300;2024-03-17T06:25:52;101723.25;;;1.35;100.00
17593;BME280;8915;51.760;14.300;2024-03-17T06:28:19;101718.91;;;1.41;100.00
17593;BME280;8915;51.760;14.300;2024-03-17T06:30:55;101716.38;;;1.46;100.00
17593;BME280;8915;51.760;14.300;2024-03-17T06:33:22;101731.91;;;1.57;100.00
17593;BME280;8915;51.760;14.300;2024-03-17T06:35:48;101727.81;;;1.61;100.00
17593;BME280;8915;51.760;14.300;2024-03-17T06:38:15;101731.03;;;1.68;100.00
17593;BME280;8915;51.760;14.300;2024-03-17T06:40:48;101740.56;;;1.79;100.00
17593;BME280;8915;51.760;14.300;2024-03-17T06:43:14;101746.16;;;1.88;100.00
17593;BME280;8915;51.760;14.300;2024-03-17T06:45:41;101749.94;;;1.97;100.00
17593;BME280;8915;51.760;14.300;2024-03-17T06:48:07;101750.53;;;2.04;100.00
17593;BME280;8915;51.760;14.300;2024-03-17T06:50:33;101749.34;;;2.11;100.00
17593;BME280;8915;51.760;14.300;2024-03-17T06:53:00;101763.28;;;2.22;100.00
17593;BME280;8915;51.760;14.300;2024-03-17T06:55:26;101760.50;;;2.28;100.00
17593;BME280;8915;51.760;14.300;2024-03-17T06:57:54;101763.78;;;2.40;100.00
17593;BME280;8915;51.760;14.300;2024-03-17T07:00:23;101761.78;;;2.47;100.00
17593;BME280;8915;51.760;14.300;2024-03-17T07:02:50;101767.66;;;2.59;100.00
17593;BME280;8915;51.760;14.300;2024-03-17T07:05:16;101759.66;;;2.66;100.00
17593;BME280;8915;51.760;14.300;2024-03-17T07:07:44;101766.78;;;2.75;100.00
17593;BME280;8915;51.760;14.300;2024-03-17T07:10:11;101766.13;;;2.85;100.00
17593;BME280;8915;51.760;14.300;2024-03-17T07:12:41;101767.81;;;2.96;100.00
17593;BME280;8915;51.760;14.300;2024-03-17T07:15:09;101766.09;;;3.11;100.00
17593;BME280;8915;51.760;14.300;2024-03-17T07:17:36;101759.91;;;3.17;100.00
17593;BME280;8915;51.760;14.300;2024-03-17T07:20:03;101774.06;;;3.26;100.00
17593;BME280;8915;51.760;14.300;2024-03-17T07:22:33;101772.03;;;3.33;100.00
17593;BME280;8915;51.760;14.300;2024-03-17T07:25:00;101778.91;;;3.39;100.00
17593;BME280;8915;51.760;14.300;2024-03-17T07:27:29;101775.88;;;3.52;100.00
17593;BME280;8915;51.760;14.300;2024-03-17T07:29:56;101775.41;;;3.60;100.00
17593;BME280;8915;51.760;14.300;2024-03-17T07:32:24;101773.66;;;3.71;100.00
17593;BME280;8915;51.760;14.300;2024-03-17T07:34:51;101779.19;;;3.79;100.00
17593;BME280;8915;51.760;14.300;2024-03-17T07:37:17;101784.44;;;3.84;100.00
17593;BME280;8915;51.760;14.300;2024-03-17T07:39:44;101783.47;;;3.90;100.00
17593;BME280;8915;51.760;14.300;2024-03-17T07:42:13;101785.59;;;3.98;100.00
17593;BME280;8915;51.760;14.300;2024-03-17T07:44:39;101791.13;;;4.07;100.00
17593;BME280;8915;51.760;14.300;2024-03-17T07:47:06;101794.34;;;4.19;100.00
17593;BME280;8915;51.760;14.300;2024-03-17T07:49:34;101795.16;;;4.24;100.00
17593;BME280;8915;51.760;14.300;2024-03-17T07:52:00;101803.03;;;4.34;100.00
17593;BME280;8915;51.760;14.300;2024-03-17T07:54:27;101804.41;;;4.42;100.00
17593;BME280;8915;51.760;14.300;2024-03-17T07:56:57;101803.66;;;4.51;100.00
17593;BME280;8915;51.760;14.300;2024-03-17T07:59:26;101807.88;;;4.62;100.00
17593;BME280;8915;51.760;14.300;2024-03-17T08:01:53;101811.56;;;4.71;100.00
17593;BME280;8915;51.760;14.300;2024-03-17T08:04:21;101804.53;;;4.77;100.00
17593;BME280;8915;51.760;14.300;2024-03-17T08:06:48;101801.16;;;4.86;100.00
17593;BME280;8915;51.760;14.300;2024-03-17T08:09:15;101804.06;;;4.95;100.00
17593;BME280;8915;51.760;14.300;2024-03-17T08:11:41;101803.31;;;5.09;100.00
17593;BME280;8915;51.760;14.300;2024-03-17T08:14:11;101803.84;;;5.16;100.00
17593;BME280;8915;51.760;14.300;2024-03-17T08:16:38;101802.00;;;5.22;100.00
17593;BME280;8915;51.760;14.300;2024-03-17T08:19:04;101802.31;;;5.30;100.00
17593;BME280;8915;51.760;14.300;2024-03-17T08:21:32;101788.41;;;5.35;100.00
17593;BME280;8915;51.760;14.300;2024-03-17T08:23:59;101798.09;;;5.44;100.00
17593;BME280;8915;51.760;14.300;2024-03-17T08:26:26;101793.13;;;5.53;100.00
17593;BME280;8915;51.760;14.300;2024-03-17T08:28:52;101794.97;;;5.62;100.00
17593;BME280;8915;51.760;14.300;2024-03-17T08:31:18;101786.81;;;5.74;100.00
17593;BME280;8915;51.760;14.300;2024-03-17T08:33:45;101791.28;;;5.78;100.00
17593;BME280;8915;51.760;14.300;2024-03-17T08:36:16;101794.44;;;5.85;100.00
17593;BME280;8915;51.760;14.300;2024-03-17T08:38:43;101792.09;;;5.89;100.00
17593;BME280;8915;51.760;14.300;2024-03-17T08:41:14;101793.13;;;5.93;100.00
17593;BME280;8915;51.760;14.300;2024-03-17T08:43:41;101786.81;;;5.99;100.00
17593;BME280;8915;51.760;14.300;2024-03-17T08:46:10;101791.00;;;6.05;100.00
17593;BME280;8915;51.760;14.300;2024-03-17T08:48:39;101797.03;;;6.15;100.00
17593;BME280;8915;51.760;14.300;2024-03-17T08:51:07;101797.00;;;6.25;100.00
17593;BME280;8915;51.760;14.300;2024-03-17T08:53:37;101801.16;;;6.36;100.00
17593;BME280;8915;51.760;14.300;2024-03-17T08:56:05;101795.91;;;6.41;100.00
17593;BME280;8915;51.760;14.300;2024-03-17T08:58:37;101790.63;;;6.46;100.00
17593;BME280;8915;51.760;14.300;2024-03-17T09:01:04;101795.03;;;6.56;100.00
17593;BME280;8915;51.760;14.300;2024-03-17T09:03:31;101799.75;;;6.64;100.00
17593;BME280;8915;51.760;14.300;2024-03-17T09:05:58;101788.66;;;6.72;100.00
17593;BME280;8915;51.760;14.300;2024-03-17T09:08:25;101783.94;;;6.79;100.00
17593;BME280;8915;51.760;14.300;2024-03-17T09:10:54;101784.16;;;6.82;100.00
17593;BME280;8915;51.760;14.300;2024-03-17T09:13:21;101784.13;;;6.87;100.00
17593;BME280;8915;51.760;14.300;2024-03-17T09:15:52;101781.72;;;6.96;100.00
17593;BME280;8915;51.760;14.300;2024-03-17T09:18:17;101790.56;;;7.10;100.00
17593;BME280;8915;51.760;14.300;2024-03-17T09:20:44;101778.13;;;7.20;100.00
17593;BME280;8915;51.760;14.300;2024-03-17T09:23:13;101787.56;;;7.26;100.00
17593;BME280;8915;51.760;14.300;2024-03-17T09:25:40;101788.56;;;7.30;100.00
17593;BME280;8915;51.760;14.300;2024-03-17T09:28:07;101776.44;;;7.39;100.00
17593;BME280;8915;51.760;14.300;2024-03-17T09:30:33;101783.16;;;7.50;100.00
17593;BME280;8915;51.760;14.300;2024-03-17T09:33:02;101792.56;;;7.56;100.00
17593;BME280;8915;51.760;14.300;2024-03-17T09:35:29;101780.69;;;7.64;100.00
17593;BME280;8915;51.760;14.300;2024-03-17T09:37:56;101781.97;;;7.66;100.00
17593;BME280;8915;51.760;14.300;2024-03-17T09:40:25;101786.47;;;7.66;100.00
17593;BME280;8915;51.760;14.300;2024-03-17T09:42:51;101785.66;;;7.65;100.00
17593;BME280;8915;51.760;14.300;2024-03-17T09:45:18;101781.47;;;7.64;100.00
17593;BME280;8915;51.760;14.300;2024-03-17T09:47:45;101781.72;;;7.68;100.00
17593;BME280;8915;51.760;14.300;2024-03-17T09:50:14;101773.50;;;7.74;100.00
17593;BME280;8915;51.760;14.300;2024-03-17T09:52:42;101764.56;;;7.75;100.00
17593;BME280;8915;51.760;14.300;2024-03-17T09:55:15;101768.69;;;7.81;100.00
17593;BME280;8915;51.760;14.300;2024-03-17T09:57:42;101771.63;;;7.75;100.00
17593;BME280;8915;51.760;14.300;2024-03-17T10:00:10;101768.47;;;7.78;100.00
17593;BME280;8915;51.760;14.300;2024-03-17T10:02:42;101764.22;;;7.82;100.00
17593;BME280;8915;51.760;14.300;2024-03-17T10:05:19;101770.22;;;7.87;100.00
17593;BME280;8915;51.760;14.300;2024-03-17T10:07:47;101762.03;;;7.89;100.00
17593;BME280;8915;51.760;14.300;2024-03-17T10:10:14;101751.97;;;7.96;100.00
17593;BME280;8915;51.760;14.300;2024-03-17T10:12:42;101747.22;;;7.98;100.00
17593;BME280;8915;51.760;14.300;2024-03-17T10:15:11;101754.22;;;8.07;100.00
17593;BME280;8915;51.760;14.300;2024-03-17T10:17:37;101754.38;;;8.16;100.00
17593;BME280;8915;51.760;14.300;2024-03-17T10:20:14;101753.00;;;8.23;100.00
17593;BME280;8915;51.760;14.300;2024-03-17T10:23:02;101753.97;;;8.32;95.46
17593;BME280;8915;51.760;14.300;2024-03-17T10:25:32;101743.03;;;8.44;99.13
17593;BME280;8915;51.760;14.300;2024-03-17T10:27:59;101747.38;;;8.53;100.00
17593;BME280;8915;51.760;14.300;2024-03-17T10:30:26;101756.00;;;8.59;95.00
17593;BME280;8915;51.760;14.300;2024-03-17T10:32:55;101757.84;;;8.58;78.75
17593;BME280;8915;51.760;14.300;2024-03-17T10:35:33;101754.34;;;8.63;90.89
17593;BME280;8915;51.760;14.300;2024-03-17T10:38:02;101764.75;;;8.54;89.61
17593;BME280;8915;51.760;14.300;2024-03-17T10:40:30;101762.97;;;8.50;100.00
17593;BME280;8915;51.760;14.300;2024-03-17T10:42:59;101749.53;;;8.51;97.22
17593;BME280;8915;51.760;14.300;2024-03-17T10:45:27;101753.50;;;8.49;83.06
17593;BME280;8915;51.760;14.300;2024-03-17T10:47:56;101751.03;;;8.57;88.92
17593;BME280;8915;51.760;14.300;2024-03-17T10:50:30;101761.84;;;8.74;84.15
17593;BME280;8915;51.760;14.300;2024-03-17T10:53:03;101763.63;;;8.79;76.93
17593;BME280;8915;51.760;14.300;2024-03-17T10:55:42;101761.97;;;8.83;81.62
17593;BME280;8915;51.760;14.300;2024-03-17T10:58:21;101756.50;;;8.79;77.19
17593;BME280;8915;51.760;14.300;2024-03-17T11:00:49;101761.63;;;8.89;79.98
17593;BME280;8915;51.760;14.300;2024-03-17T11:03:18;101754.47;;;8.95;74.98
17593;BME280;8915;51.760;14.300;2024-03-17T11:05:47;101755.56;;;9.07;80.03
17593;BME280;8915;51.760;14.300;2024-03-17T11:08:17;101771.16;;;9.22;80.85
17593;BME280;8915;51.760;14.300;2024-03-17T11:10:49;101765.38;;;9.20;75.61
17593;BME280;8915;51.760;14.300;2024-03-17T11:13:22;101763.38;;;9.12;77.12
17593;BME280;8915;51.760;14.300;2024-03-17T11:15:49;101765.41;;;9.02;78.04
17593;BME280;8915;51.760;14.300;2024-03-17T11:18:37;101759.00;;;9.08;69.08
17593;BME280;8915;51.760;14.300;2024-03-17T11:21:06;101753.09;;;9.16;77.33
17593;BME280;8915;51.760;14.300;2024-03-17T11:23:35;101754.06;;;9.20;68.81
17593;BME280;8915;51.760;14.300;2024-03-17T11:26:04;101749.91;;;9.32;72.28
17593;BME280;8915;51.760;14.300;2024-03-17T11:28:45;101745.66;;;9.50;73.87
17593;BME280;8915;51.760;14.300;2024-03-17T11:31:37;101742.84;;;9.60;70.65
17593;BME280;8915;51.760;14.300;2024-03-17T11:34:06;101744.16;;;9.76;69.87
17593;BME280;8915;51.760;14.300;2024-03-17T11:36:35;101740.25;;;9.87;70.96
17593;BME280;8915;51.760;14.300;2024-03-17T11:39:04;101742.78;;;9.78;72.38
17593;BME280;8915;51.760;14.300;2024-03-17T11:41:37;101750.78;;;9.73;75.43
17593;BME280;8915;51.760;14.300;2024-03-17T11:44:29;101757.78;;;9.64;64.89
17593;BME280;8915;51.760;14.300;2024-03-17T11:46:59;101750.09;;;9.54;65.40
17593;BME280;8915;51.760;14.300;2024-03-17T11:49:26;101761.75;;;9.48;75.08
17593;BME280;8915;51.760;14.300;2024-03-17T11:51:54;101755.28;;;9.41;71.60
17593;BME280;8915;51.760;14.300;2024-03-17T11:54:22;101748.25;;;9.36;62.00
17593;BME280;8915;51.760;14.300;2024-03-17T11:56:51;101743.78;;;9.37;63.36
17593;BME280;8915;51.760;14.300;2024-03-17T11:59:18;101740.00;;;9.43;61.30
17593;BME280;8915;51.760;14.300;2024-03-17T12:01:45;101736.91;;;9.54;63.57
17593;BME280;8915;51.760;14.300;2024-03-17T12:04:13;101724.31;;;9.65;73.74
17593;BME280;8915;51.760;14.300;2024-03-17T12:06:44;101732.41;;;9.68;79.65
17593;BME280;8915;51.760;14.300;2024-03-17T12:09:18;101731.84;;;9.71;70.27
17593;BME280;8915;51.760;14.300;2024-03-17T12:11:48;101728.31;;;9.76;59.40
17593;BME280;8915;51.760;14.300;2024-03-17T12:14:18;101725.31;;;9.82;62.97
17593;BME280;8915;51.760;14.300;2024-03-17T12:16:52;101722.47;;;9.92;63.27
17593;BME280;8915;51.760;14.300;2024-03-17T12:19:21;101726.00;;;10.01;60.45
17593;BME280;8915;51.760;14.300;2024-03-17T12:21:49;101723.97;;;10.12;61.73
17593;BME280;8915;51.760;14.300;2024-03-17T12:24:17;101723.09;;;10.16;56.87
17593;BME280;8915;51.760;14.300;2024-03-17T12:26:45;101717.59;;;10.26;63.31
17593;BME280;8915;51.760;14.300;2024-03-17T12:29:26;101712.91;;;10.37;65.32
17593;BME280;8915;51.760;14.300;2024-03-17T12:31:55;101704.78;;;10.33;58.41
17593;BME280;8915;51.760;14.300;2024-03-17T12:34:22;101708.28;;;10.29;59.85
17593;BME280;8915;51.760;14.300;2024-03-17T12:36:51;101703.81;;;10.29;73.17
17593;BME280;8915;51.760;14.300;2024-03-17T12:39:19;101703.03;;;10.29;59.68
17593;BME280;8915;51.760;14.300;2024-03-17T12:42:00;101697.75;;;10.29;63.47
17593;BME280;8915;51.760;14.300;2024-03-17T12:44:27;101702.03;;;10.38;68.95
17593;BME280;8915;51.760;14.300;2024-03-17T12:46:55;101694.31;;;10.42;58.57
17593;BME280;8915;51.760;14.300;2024-03-17T12:49:26;101696.84;;;10.47;64.00
17593;BME280;8915;51.760;14.300;2024-03-17T12:51:52;101696.25;;;10.50;57.05
17593;BME280;8915;51.760;14.300;2024-03-17T12:54:21;101691.63;;;10.55;61.72
17593;BME280;8915;51.760;14.300;2024-03-17T12:56:48;101701.09;;;10.56;53.71
17593;BME280;8915;51.760;14.300;2024-03-17T12:59:42;101688.59;;;10.62;66.43